createdAt,value
2023-05-17T00:03:40.219Z,14.28
2023-05-17T00:07:28.088Z,14.24
2023-05-17T00:11:17.757Z,14.13
2023-05-17T00:15:05.904Z,13.96
2023-05-17T00:18:54.133Z,13.84
2023-05-17T00:22:42.240Z,13.81
2023-05-17T00:26:49.317Z,13.66
2023-05-17T00:30:38.936Z,13.54
2023-05-17T00:34:32.874Z,13.52
2023-05-17T00:38:42.040Z,13.42
2023-05-17T00:42:36.120Z,13.28
2023-05-17T00:46:24.067Z,13.29
2023-05-17T00:50:14.366Z,13.30
2023-05-17T00:54:02.314Z,13.20
2023-05-17T00:57:57.527Z,13.25
2023-05-17T01:01:46.015Z,13.19
2023-05-17T01:05:34.729Z,13.08
2023-05-17T01:09:31.435Z,13.03
2023-05-17T01:13:28.459Z,12.96
2023-05-17T01:17:16.924Z,12.81
2023-05-17T01:21:22.184Z,12.89
2023-05-17T01:25:10.812Z,12.72
2023-05-17T01:28:58.450Z,12.70
2023-05-17T01:32:50.609Z,12.61
2023-05-17T01:36:38.701Z,12.53
2023-05-17T01:40:48.875Z,12.47
2023-05-17T01:44:42.783Z,12.54
2023-05-17T01:48:37.486Z,12.44
2023-05-17T01:52:28.417Z,12.44
2023-05-17T01:56:21.014Z,12.39
2023-05-17T02:00:08.884Z,12.34
2023-05-17T02:03:43.483Z,12.32
2023-05-17T02:07:32.092Z,12.36
2023-05-17T02:11:20.211Z,12.25
2023-05-17T02:15:14.313Z,12.19
2023-05-17T02:23:16.330Z,12.17
2023-05-17T02:27:04.460Z,12.21
2023-05-17T02:30:52.600Z,12.29
2023-05-17T02:34:41.470Z,12.24
2023-05-17T02:38:30.302Z,12.26
2023-05-17T02:42:18.477Z,12.26
2023-05-17T02:46:12.294Z,12.14
2023-05-17T02:50:02.489Z,11.99
2023-05-17T02:54:04.212Z,11.84
2023-05-17T02:57:52.085Z,11.66
2023-05-17T03:01:40.229Z,11.61
2023-05-17T03:05:28.506Z,11.69
2023-05-17T03:09:21.792Z,11.63
2023-05-17T03:13:09.822Z,11.64
2023-05-17T03:21:13.849Z,11.57
2023-05-17T03:25:03.205Z,11.48
2023-05-17T03:28:54.543Z,11.45
2023-05-17T03:32:42.002Z,11.52
2023-05-17T03:36:31.674Z,11.49
2023-05-17T03:40:20.023Z,11.55
2023-05-17T03:48:20.169Z,11.53
2023-05-17T03:52:10.358Z,11.42
2023-05-17T03:55:59.643Z,11.60
2023-05-17T03:59:48.187Z,11.49
2023-05-17T04:03:35.746Z,11.59
2023-05-17T04:07:47.546Z,11.57
2023-05-17T04:11:37.074Z,11.64
2023-05-17T04:15:30.597Z,11.83
2023-05-17T04:19:18.682Z,12.11
2023-05-17T04:23:30.958Z,12.07
2023-05-17T04:27:18.943Z,11.98
2023-05-17T04:31:07.653Z,11.92
2023-05-17T04:34:56.127Z,12.06
2023-05-17T04:38:43.938Z,12.26
2023-05-17T04:42:42.482Z,12.37
2023-05-17T04:46:38.214Z,12.40
2023-05-17T04:50:36.588Z,12.38
2023-05-17T04:54:24.542Z,12.35
2023-05-17T04:58:14.802Z,12.13
2023-05-17T05:02:03.002Z,12.29
2023-05-17T05:05:50.897Z,12.19
2023-05-17T05:09:39.499Z,12.14
2023-05-17T05:13:28.270Z,12.53
2023-05-17T05:17:15.988Z,12.56
2023-05-17T05:21:04.008Z,12.60
2023-05-17T05:24:52.084Z,12.72
2023-05-17T05:28:39.703Z,12.86
2023-05-17T05:32:27.496Z,12.98
2023-05-17T05:36:16.050Z,12.93
2023-05-17T05:40:07.738Z,13.08
2023-05-17T05:43:56.145Z,13.10
2023-05-17T05:47:44.331Z,13.05
2023-05-17T05:51:33.438Z,13.38
2023-05-17T05:55:22.176Z,13.54
2023-05-17T05:59:10.423Z,13.66
2023-05-17T06:03:02.079Z,13.76
2023-05-17T06:06:43.855Z,13.92
2023-05-17T06:10:33.788Z,14.07
2023-05-17T06:14:22.588Z,13.95
2023-05-17T06:18:04.964Z,13.78
2023-05-17T06:21:54.212Z,13.95
2023-05-17T06:25:42.063Z,14.21
2023-05-17T06:29:32.363Z,14.45
2023-05-17T06:33:20.211Z,14.48
2023-05-17T06:37:08.451Z,14.49
2023-05-17T06:41:00.550Z,14.62
2023-05-17T06:44:50.736Z,14.63
2023-05-17T06:48:31.552Z,14.91
2023-05-17T06:52:14.119Z,15.10
2023-05-17T06:56:02.567Z,15.50
2023-05-17T06:59:43.346Z,15.91
2023-05-17T07:03:31.404Z,15.90
2023-05-17T07:07:13.533Z,15.91
2023-05-17T07:10:52.386Z,15.80
2023-05-17T07:14:33.302Z,15.79
2023-05-17T07:18:24.533Z,15.80
2023-05-17T07:22:12.545Z,16.39
2023-05-17T07:26:00.465Z,16.90
2023-05-17T07:29:52.065Z,17.40
2023-05-17T07:33:39.899Z,18.11
2023-05-17T07:37:28.360Z,18.84
2023-05-17T07:41:22.000Z,19.46
2023-05-17T07:45:10.828Z,19.21
2023-05-17T07:48:58.978Z,18.87
2023-05-17T07:52:46.806Z,19.40
2023-05-17T07:56:35.147Z,19.15
2023-05-17T08:00:24.617Z,19.59
2023-05-17T08:04:12.505Z,19.63
2023-05-17T08:07:45.882Z,19.69
2023-05-17T08:11:38.555Z,19.51
2023-05-17T08:15:28.115Z,18.68
2023-05-17T08:19:19.379Z,18.85
2023-05-17T08:23:07.115Z,19.09
2023-05-17T08:26:54.865Z,18.91
2023-05-17T08:30:43.027Z,18.51
2023-05-17T08:34:31.457Z,18.80
2023-05-17T08:38:30.183Z,18.46
2023-05-17T08:42:17.713Z,18.21
2023-05-17T08:46:06.271Z,17.73
2023-05-17T08:49:33.484Z,17.79
2023-05-17T08:53:15.670Z,17.88
2023-05-17T08:57:03.162Z,18.02
2023-05-17T09:00:51.223Z,17.91
2023-05-17T09:04:32.888Z,17.87
2023-05-17T09:08:20.730Z,18.29
2023-05-17T09:12:08.705Z,17.51
2023-05-17T09:15:56.819Z,18.17
2023-05-17T09:19:45.539Z,17.97
2023-05-17T09:23:47.058Z,17.97
2023-05-17T09:27:41.968Z,17.28
2023-05-17T09:31:30.133Z,17.43
2023-05-17T09:35:18.388Z,17.94
2023-05-17T09:39:06.307Z,17.83
2023-05-17T09:42:52.619Z,17.80
2023-05-17T09:46:22.755Z,17.26
2023-05-17T09:49:53.750Z,17.50
2023-05-17T09:53:34.928Z,17.70
2023-05-17T09:57:23.585Z,18.22
2023-05-17T10:01:12.636Z,18.49
2023-05-17T10:04:46.425Z,19.29
2023-05-17T10:08:35.829Z,18.49
2023-05-17T10:12:19.877Z,18.30
2023-05-17T10:16:11.711Z,18.34
2023-05-17T10:19:59.405Z,18.02
2023-05-17T10:23:46.876Z,17.85
2023-05-17T10:27:18.349Z,17.72
2023-05-17T10:30:59.035Z,17.34
2023-05-17T10:34:40.954Z,17.11
2023-05-17T10:38:41.818Z,17.16
2023-05-17T10:42:34.205Z,16.46
2023-05-17T10:46:23.465Z,16.42
2023-05-17T10:50:09.200Z,16.62
2023-05-17T10:53:49.719Z,16.73
2023-05-17T11:01:22.138Z,17.39
2023-05-17T11:05:12.895Z,18.25
2023-05-17T11:09:16.097Z,18.16
2023-05-17T11:12:59.500Z,17.74
2023-05-17T11:16:47.236Z,17.43
2023-05-17T11:20:37.262Z,17.63
2023-05-17T11:24:28.428Z,18.07
2023-05-17T11:28:17.802Z,17.68
2023-05-17T11:32:11.376Z,18.58
2023-05-17T11:36:03.076Z,18.33
2023-05-17T11:39:51.211Z,17.82
2023-05-17T11:43:51.595Z,18.41
2023-05-17T11:47:45.849Z,18.31
2023-05-17T11:51:34.089Z,18.75
2023-05-17T11:55:21.973Z,18.52
2023-05-17T11:59:09.584Z,18.59
2023-05-17T12:03:06.076Z,18.26
2023-05-17T12:07:07.294Z,18.40
2023-05-17T12:10:55.084Z,18.35
2023-05-17T12:14:42.745Z,18.31
2023-05-17T12:18:31.479Z,18.37
2023-05-17T12:22:19.285Z,18.48
2023-05-17T12:26:07.539Z,18.86
2023-05-17T12:29:55.203Z,18.98
2023-05-17T12:33:43.596Z,18.57
2023-05-17T12:37:32.056Z,18.29
2023-05-17T12:41:19.945Z,18.30
2023-05-17T12:44:59.586Z,18.16
2023-05-17T12:48:40.751Z,18.51
2023-05-17T12:52:28.650Z,18.13
2023-05-17T12:56:17.963Z,18.18
2023-05-17T13:00:05.865Z,18.27
2023-05-17T13:03:52.748Z,17.85
2023-05-17T13:07:53.753Z,17.99
2023-05-17T13:11:50.062Z,17.82
2023-05-17T13:15:41.021Z,17.96
2023-05-17T13:19:29.599Z,18.42
2023-05-17T13:23:18.332Z,18.63
2023-05-17T13:27:05.920Z,17.92
2023-05-17T13:30:45.885Z,18.37
2023-05-17T13:34:21.962Z,18.54
2023-05-17T13:38:10.679Z,18.51
2023-05-17T13:41:58.163Z,18.79
2023-05-17T13:45:45.984Z,18.56
2023-05-17T13:49:27.546Z,18.90
2023-05-17T13:53:15.558Z,18.49
2023-05-17T13:57:02.576Z,18.47
2023-05-17T14:00:40.757Z,18.78
2023-05-17T14:04:16.394Z,18.83
2023-05-17T14:07:56.642Z,18.73
2023-05-17T14:11:37.977Z,18.62
2023-05-17T14:15:18.410Z,18.65
2023-05-17T14:19:02.718Z,18.33
2023-05-17T14:22:54.359Z,17.91
2023-05-17T14:26:34.120Z,17.83
2023-05-17T14:30:04.346Z,18.54
2023-05-17T14:33:43.940Z,18.17
2023-05-17T14:37:21.644Z,18.22
2023-05-17T14:41:09.175Z,18.06
2023-05-17T14:44:57.742Z,18.52
2023-05-17T14:48:45.904Z,18.58
2023-05-17T14:51:53.543Z,18.70
2023-05-17T14:55:41.325Z,18.19
2023-05-17T14:59:23.689Z,18.38
2023-05-17T15:03:01.231Z,18.49
2023-05-17T15:06:48.782Z,18.56
2023-05-17T15:10:39.354Z,19.40
2023-05-17T15:14:25.981Z,18.80
2023-05-17T15:18:05.510Z,19.15
2023-05-17T15:21:53.221Z,18.94
2023-05-17T15:25:41.371Z,19.03
2023-05-17T15:29:14.429Z,18.66
2023-05-17T15:32:52.216Z,18.53
2023-05-17T15:36:42.578Z,18.86
2023-05-17T15:40:24.888Z,18.42
2023-05-17T15:44:05.045Z,18.42
2023-05-17T15:47:44.499Z,18.66
2023-05-17T15:51:16.115Z,18.55
2023-05-17T15:54:54.196Z,18.36
2023-05-17T15:58:35.017Z,18.68
2023-05-17T16:02:14.705Z,18.27
2023-05-17T16:05:39.006Z,18.36
2023-05-17T16:09:12.327Z,18.15
2023-05-17T16:12:51.745Z,18.39
2023-05-17T16:16:39.768Z,18.51
2023-05-17T16:20:21.443Z,18.59
2023-05-17T16:24:09.358Z,18.30
2023-05-17T16:27:56.220Z,18.30
2023-05-17T16:31:36.586Z,18.40
2023-05-17T16:35:26.950Z,18.64
2023-05-17T16:39:15.482Z,18.53
2023-05-17T16:42:56.386Z,18.63
2023-05-17T16:46:31.253Z,18.53
2023-05-17T16:50:18.601Z,18.45
2023-05-17T16:53:59.180Z,18.59
2023-05-17T16:57:47.206Z,18.18
2023-05-17T17:01:29.822Z,18.16
2023-05-17T17:05:18.509Z,18.15
2023-05-17T17:09:08.241Z,17.72
2023-05-17T17:12:56.516Z,17.68
2023-05-17T17:16:36.961Z,17.47
2023-05-17T17:20:18.424Z,17.43
2023-05-17T17:24:06.661Z,17.28
2023-05-17T17:27:47.532Z,17.23
2023-05-17T17:31:21.672Z,17.36
2023-05-17T17:35:12.107Z,17.34
2023-05-17T17:38:55.379Z,17.20
2023-05-17T17:42:35.403Z,17.20
2023-05-17T17:45:32.696Z,17.12
2023-05-17T17:48:53.776Z,17.04
2023-05-17T17:52:15.452Z,16.80
2023-05-17T17:56:03.804Z,16.74
2023-05-17T17:59:40.112Z,16.61
2023-05-17T18:03:28.112Z,16.38
2023-05-17T18:06:58.758Z,16.21
2023-05-17T18:10:38.390Z,16.16
2023-05-17T18:14:09.748Z,16.13
2023-05-17T18:17:56.573Z,15.90
2023-05-17T18:21:44.414Z,15.73
2023-05-17T18:25:27.004Z,15.70
2023-05-17T18:29:14.683Z,15.63
2023-05-17T18:32:54.814Z,15.48
2023-05-17T18:36:43.026Z,15.24
2023-05-17T18:40:29.970Z,15.23
2023-05-17T18:44:19.902Z,15.21
2023-05-17T18:48:01.649Z,15.06
2023-05-17T18:51:49.743Z,15.00
2023-05-17T18:55:38.318Z,15.01
2023-05-17T18:59:26.544Z,14.99
2023-05-17T19:03:14.238Z,14.82
2023-05-17T19:07:02.298Z,14.72
2023-05-17T19:10:50.777Z,14.63
2023-05-17T19:14:38.595Z,14.37
2023-05-17T19:18:26.354Z,14.39
2023-05-17T19:22:13.284Z,14.29
2023-05-17T19:25:20.952Z,14.18
2023-05-17T19:29:08.437Z,14.16
2023-05-17T19:32:48.447Z,14.14
2023-05-17T19:36:36.600Z,13.97
2023-05-17T19:40:18.268Z,13.99
2023-05-17T19:44:06.264Z,13.94
2023-05-17T19:47:46.843Z,13.66
2023-05-17T19:51:34.793Z,13.34
2023-05-17T19:55:21.726Z,13.23
2023-05-17T19:58:51.568Z,13.19
2023-05-17T20:02:38.622Z,13.10
2023-05-17T20:06:27.210Z,13.08
2023-05-17T20:10:07.982Z,12.94
2023-05-17T20:13:39.494Z,12.96
2023-05-17T20:16:41.290Z,12.89
2023-05-17T20:20:22.103Z,12.80
2023-05-17T20:24:08.808Z,12.81
2023-05-17T20:27:37.796Z,12.86
2023-05-17T20:31:04.548Z,12.76
2023-05-17T20:34:15.666Z,12.77
2023-05-17T20:38:32.758Z,12.59
2023-05-17T20:42:19.109Z,12.48
2023-05-17T20:46:05.171Z,12.34
2023-05-17T20:49:53.143Z,12.24
2023-05-17T20:53:21.683Z,12.16
2023-05-17T20:56:49.813Z,12.12
2023-05-17T21:00:17.316Z,12.15
2023-05-17T21:04:05.707Z,12.08
2023-05-17T21:07:45.288Z,12.08
2023-05-17T21:11:33.175Z,11.96
2023-05-17T21:15:21.124Z,11.96
2023-05-17T21:19:08.924Z,11.96
2023-05-17T21:22:39.022Z,12.01
2023-05-17T21:30:19.186Z,12.07
2023-05-17T21:33:57.839Z,12.12
2023-05-17T21:37:44.329Z,12.25
2023-05-17T21:41:20.760Z,12.26
2023-05-17T21:44:36.188Z,12.35
2023-05-17T21:48:13.479Z,12.23
2023-05-17T21:51:50.155Z,12.13
2023-05-17T21:55:51.404Z,12.11
2023-05-17T21:59:45.319Z,12.11
2023-05-17T22:03:33.345Z,12.08
2023-05-17T22:07:19.665Z,11.99
2023-05-17T22:10:59.357Z,11.94
2023-05-17T22:14:41.659Z,11.93
2023-05-17T22:18:20.572Z,11.96
2023-05-17T22:22:00.982Z,11.88
2023-05-17T22:25:48.714Z,11.89
2023-05-17T22:29:13.205Z,11.89
2023-05-17T22:33:01.548Z,11.88
2023-05-17T22:36:36.055Z,11.77
2023-05-17T22:40:23.710Z,11.78
2023-05-17T22:43:56.589Z,11.78
2023-05-17T22:47:27.547Z,11.79
2023-05-17T22:50:58.242Z,11.90
2023-05-17T22:54:45.863Z,11.83
2023-05-17T22:58:33.912Z,11.76
2023-05-17T23:02:21.032Z,11.81
2023-05-17T23:05:59.150Z,11.85
2023-05-17T23:09:46.525Z,11.79
2023-05-17T23:13:34.969Z,11.76
2023-05-17T23:17:16.108Z,11.91
2023-05-17T23:20:54.251Z,11.91
2023-05-17T23:24:24.235Z,11.83
2023-05-17T23:28:11.985Z,11.77
2023-05-17T23:31:59.620Z,11.72
2023-05-17T23:35:47.613Z,11.64
2023-05-17T23:39:24.390Z,11.68
2023-05-17T23:43:12.347Z,11.65
2023-05-17T23:47:00.182Z,11.44
2023-05-17T23:50:48.018Z,11.26
2023-05-17T23:54:24.533Z,11.10
2023-05-17T23:57:56.114Z,10.99
